createdAt,value
2022-11-18T00:01:22.672Z,98.81
2022-11-18T00:03:51.930Z,98.45
2022-11-18T00:06:24.195Z,98.66
2022-11-18T00:08:53.821Z,98.82
2022-11-18T00:11:45.368Z,98.20
2022-11-18T00:14:23.401Z,98.61
2022-11-18T00:17:03.797Z,98.83
2022-11-18T00:19:37.655Z,98.38
2022-11-18T00:22:08.307Z,98.76
2022-11-18T00:24:35.747Z,98.95
2022-11-18T00:27:03.439Z,98.93
2022-11-18T00:29:31.633Z,98.96
2022-11-18T00:31:59.084Z,98.97
2022-11-18T00:34:26.955Z,98.82
2022-11-18T00:36:54.347Z,99.64
2022-11-18T00:39:22.824Z,99.26
2022-11-18T00:42:09.044Z,99.45
2022-11-18T00:44:36.862Z,99.11
2022-11-18T00:47:05.074Z,99.02
2022-11-18T00:49:32.610Z,99.05
2022-11-18T00:52:01.254Z,98.78
2022-11-18T00:54:28.649Z,99.27
2022-11-18T00:56:56.109Z,99.08
2022-11-18T00:59:23.570Z,99.30
2022-11-18T01:01:51.246Z,99.78
2022-11-18T01:04:18.811Z,99.53
2022-11-18T01:06:46.212Z,99.58
2022-11-18T01:09:13.887Z,99.49
2022-11-18T01:12:00.136Z,99.44
2022-11-18T01:14:27.636Z,99.28
2022-11-18T01:16:56.753Z,99.61
2022-11-18T01:19:25.865Z,99.86
2022-11-18T01:21:53.705Z,99.90
2022-11-18T01:24:21.282Z,99.83
2022-11-18T01:26:48.743Z,99.87
2022-11-18T01:29:17.514Z,100.00
2022-11-18T01:32:01.796Z,100.00
2022-11-18T01:34:32.459Z,99.98
2022-11-18T01:36:59.891Z,100.00
2022-11-18T01:39:27.542Z,99.90
2022-11-18T01:41:54.971Z,99.86
2022-11-18T01:45:09.843Z,100.00
2022-11-18T01:47:44.781Z,100.00
2022-11-18T01:50:15.997Z,100.00
2022-11-18T01:52:48.779Z,100.00
2022-11-18T01:55:26.021Z,100.00
2022-11-18T01:58:05.041Z,100.00
2022-11-18T02:00:32.630Z,100.00
2022-11-18T02:03:02.369Z,100.00
2022-11-18T02:05:33.707Z,100.00
2022-11-18T02:08:03.013Z,100.00
2022-11-18T02:10:30.416Z,100.00
2022-11-18T02:12:59.043Z,100.00
2022-11-18T02:16:05.736Z,100.00
2022-11-18T02:18:58.301Z,100.00
2022-11-18T02:22:01.852Z,100.00
2022-11-18T02:24:48.773Z,100.00
2022-11-18T02:27:34.781Z,100.00
2022-11-18T02:30:15.796Z,100.00
2022-11-18T02:33:10.805Z,100.00
2022-11-18T02:35:53.860Z,100.00
2022-11-18T02:38:31.144Z,100.00
2022-11-18T02:41:06.539Z,100.00
2022-11-18T02:44:03.827Z,100.00
2022-11-18T02:46:37.644Z,100.00
2022-11-18T02:49:18.281Z,100.00
2022-11-18T02:51:50.334Z,100.00
2022-11-18T02:54:21.387Z,100.00
2022-11-18T02:56:52.399Z,100.00
2022-11-18T02:59:20.518Z,100.00
2022-11-18T03:01:48.535Z,100.00
2022-11-18T03:04:18.133Z,100.00
2022-11-18T03:07:02.438Z,100.00
2022-11-18T03:09:36.588Z,100.00
2022-11-18T03:12:40.724Z,100.00
2022-11-18T03:15:48.884Z,100.00
2022-11-18T03:18:37.782Z,100.00
2022-11-18T03:21:17.889Z,100.00
2022-11-18T03:24:04.211Z,100.00
2022-11-18T03:26:44.572Z,100.00
2022-11-18T03:29:29.085Z,100.00
2022-11-18T03:32:12.761Z,100.00
2022-11-18T03:34:47.334Z,100.00
2022-11-18T03:37:20.130Z,100.00
2022-11-18T03:39:58.730Z,100.00
2022-11-18T03:42:39.092Z,100.00
2022-11-18T03:45:18.678Z,100.00
2022-11-18T03:47:57.560Z,100.00
2022-11-18T03:50:35.779Z,100.00
2022-11-18T03:53:04.174Z,100.00
2022-11-18T03:55:40.389Z,100.00
2022-11-18T03:58:31.667Z,100.00
2022-11-18T04:01:16.163Z,100.00
2022-11-18T04:03:45.315Z,100.00
2022-11-18T04:06:43.098Z,100.00
2022-11-18T04:09:29.821Z,100.00
2022-11-18T04:12:08.674Z,100.00
2022-11-18T04:14:40.250Z,100.00
2022-11-18T04:17:13.785Z,100.00
2022-11-18T04:19:41.666Z,100.00
2022-11-18T04:22:10.470Z,100.00
2022-11-18T04:24:38.207Z,100.00
2022-11-18T04:27:06.663Z,100.00
2022-11-18T04:29:34.345Z,100.00
2022-11-18T04:32:02.751Z,100.00
2022-11-18T04:34:31.160Z,100.00
2022-11-18T04:36:59.123Z,100.00
2022-11-18T04:39:26.596Z,100.00
2022-11-18T04:41:57.060Z,100.00
2022-11-18T04:44:33.893Z,100.00
2022-11-18T04:47:05.248Z,100.00
2022-11-18T04:49:34.686Z,100.00
2022-11-18T04:52:02.590Z,100.00
2022-11-18T04:54:30.034Z,100.00
2022-11-18T04:56:57.877Z,100.00
2022-11-18T04:59:29.446Z,100.00
2022-11-18T05:01:58.269Z,100.00
2022-11-18T05:04:30.834Z,100.00
2022-11-18T05:07:00.427Z,100.00
2022-11-18T05:09:32.029Z,100.00
2022-11-18T05:12:20.239Z,100.00
2022-11-18T05:14:50.544Z,100.00
2022-11-18T05:17:19.141Z,100.00
2022-11-18T05:19:47.600Z,100.00
2022-11-18T05:22:16.077Z,100.00
2022-11-18T05:24:43.456Z,100.00
2022-11-18T05:27:11.868Z,100.00
2022-11-18T05:29:39.302Z,100.00
2022-11-18T05:32:06.781Z,100.00
2022-11-18T05:34:34.217Z,100.00
2022-11-18T05:37:01.700Z,100.00
2022-11-18T05:39:29.136Z,100.00
2022-11-18T05:42:15.207Z,100.00
2022-11-18T05:44:42.658Z,100.00
2022-11-18T05:47:10.685Z,100.00
2022-11-18T05:49:38.238Z,100.00
2022-11-18T05:52:06.815Z,100.00
2022-11-18T05:54:34.329Z,100.00
2022-11-18T05:57:02.339Z,100.00
2022-11-18T05:59:31.356Z,100.00
2022-11-18T06:02:25.217Z,100.00
2022-11-18T06:05:02.320Z,100.00
2022-11-18T06:07:37.993Z,100.00
2022-11-18T06:10:06.526Z,100.00
2022-11-18T06:12:42.223Z,100.00
2022-11-18T06:15:23.320Z,100.00
2022-11-18T06:18:05.191Z,100.00
2022-11-18T06:20:36.177Z,100.00
2022-11-18T06:23:03.649Z,100.00
2022-11-18T06:25:32.565Z,100.00
2022-11-18T06:28:02.457Z,100.00
2022-11-18T06:30:29.913Z,100.00
2022-11-18T06:32:57.343Z,100.00
2022-11-18T06:35:25.051Z,100.00
2022-11-18T06:37:53.708Z,100.00
2022-11-18T06:40:22.221Z,100.00
2022-11-18T06:43:08.451Z,100.00
2022-11-18T06:45:36.061Z,100.00
2022-11-18T06:48:04.261Z,100.00
2022-11-18T06:50:31.760Z,100.00
2022-11-18T06:53:02.241Z,100.00
2022-11-18T06:55:29.652Z,100.00
2022-11-18T06:57:57.445Z,100.00
2022-11-18T07:00:24.997Z,100.00
2022-11-18T07:02:52.400Z,100.00
2022-11-18T07:05:19.807Z,100.00
2022-11-18T07:07:47.358Z,100.00
2022-11-18T07:10:15.178Z,100.00
2022-11-18T07:12:42.655Z,100.00
2022-11-18T07:15:10.618Z,100.00
2022-11-18T07:17:38.102Z,100.00
2022-11-18T07:20:06.286Z,100.00
2022-11-18T07:22:33.725Z,100.00
2022-11-18T07:25:01.171Z,100.00
2022-11-18T07:27:28.694Z,100.00
2022-11-18T07:29:56.110Z,100.00
2022-11-18T07:32:23.583Z,100.00
2022-11-18T07:34:50.972Z,100.00
2022-11-18T07:37:18.464Z,100.00
2022-11-18T07:39:49.035Z,100.00
2022-11-18T07:42:16.420Z,100.00
2022-11-18T07:44:43.814Z,100.00
2022-11-18T07:47:11.298Z,100.00
2022-11-18T07:49:38.695Z,100.00
2022-11-18T07:52:06.244Z,100.00
2022-11-18T07:54:33.632Z,100.00
2022-11-18T07:57:01.159Z,100.00
2022-11-18T07:59:28.607Z,100.00
2022-11-18T08:01:57.598Z,100.00
2022-11-18T08:04:25.105Z,100.00
2022-11-18T08:06:52.618Z,100.00
2022-11-18T08:09:20.234Z,100.00
2022-11-18T08:11:47.916Z,100.00
2022-11-18T08:14:15.396Z,100.00
2022-11-18T08:16:42.821Z,100.00
2022-11-18T08:19:10.324Z,100.00
2022-11-18T08:21:37.814Z,100.00
2022-11-18T08:24:06.152Z,100.00
2022-11-18T08:26:33.736Z,100.00
2022-11-18T08:29:01.228Z,100.00
2022-11-18T08:31:30.725Z,100.00
2022-11-18T08:34:02.155Z,100.00
2022-11-18T08:36:33.438Z,100.00
2022-11-18T08:39:04.839Z,100.00
2022-11-18T08:41:38.984Z,100.00
2022-11-18T08:44:10.118Z,100.00
2022-11-18T08:46:37.516Z,100.00
2022-11-18T08:49:05.249Z,100.00
2022-11-18T08:51:33.005Z,100.00
2022-11-18T08:54:00.440Z,100.00
2022-11-18T08:56:28.121Z,100.00
2022-11-18T08:58:56.944Z,100.00
2022-11-18T09:01:24.524Z,100.00
2022-11-18T09:03:53.068Z,100.00
2022-11-18T09:06:24.846Z,100.00
2022-11-18T09:08:53.852Z,100.00
2022-11-18T09:11:24.973Z,100.00
2022-11-18T09:16:46.579Z,100.00
2022-11-18T09:19:46.565Z,100.00
2022-11-18T09:22:05.719Z,100.00
2022-11-18T09:24:34.615Z,100.00
2022-11-18T09:27:10.757Z,100.00
2022-11-18T09:29:39.866Z,100.00
2022-11-18T09:32:07.270Z,100.00
2022-11-18T09:34:35.703Z,100.00
2022-11-18T09:37:06.557Z,100.00
2022-11-18T09:39:38.395Z,100.00
2022-11-18T09:42:37.080Z,100.00
2022-11-18T09:45:32.820Z,100.00
2022-11-18T09:48:12.121Z,100.00
2022-11-18T09:50:49.553Z,100.00
2022-11-18T09:53:21.690Z,100.00
2022-11-18T09:55:51.111Z,100.00
2022-11-18T09:58:43.244Z,100.00
2022-11-18T10:01:17.317Z,100.00
2022-11-18T10:03:45.126Z,100.00
2022-11-18T10:06:27.629Z,100.00
2022-11-18T10:09:35.577Z,100.00
2022-11-18T10:12:17.081Z,100.00
2022-11-18T10:15:21.326Z,100.00
2022-11-18T10:18:18.787Z,100.00
2022-11-18T10:21:13.921Z,100.00
2022-11-18T10:24:09.354Z,100.00
2022-11-18T10:26:40.788Z,100.00
2022-11-18T10:29:10.857Z,100.00
2022-11-18T10:32:04.340Z,100.00
2022-11-18T10:34:35.405Z,100.00
2022-11-18T10:37:13.304Z,100.00
2022-11-18T10:39:56.278Z,100.00
2022-11-18T10:42:45.910Z,100.00
2022-11-18T10:45:22.485Z,100.00
2022-11-18T10:48:17.904Z,99.75
2022-11-18T10:50:55.653Z,99.78
2022-11-18T10:53:36.979Z,99.55
2022-11-18T10:56:08.372Z,99.16
2022-11-18T10:58:42.089Z,99.01
2022-11-18T11:01:27.061Z,98.79
2022-11-18T11:04:12.334Z,98.26
2022-11-18T11:06:39.988Z,98.12
2022-11-18T11:09:30.004Z,97.63
2022-11-18T11:12:02.745Z,97.14
2022-11-18T11:14:56.266Z,96.44
2022-11-18T11:17:45.584Z,96.42
2022-11-18T11:20:24.221Z,95.73
2022-11-18T11:22:51.785Z,96.01
2022-11-18T11:29:04.891Z,96.16
2022-11-18T11:31:59.717Z,95.48
2022-11-18T11:35:06.616Z,95.59
2022-11-18T11:38:28.022Z,95.50
2022-11-18T11:41:22.900Z,95.47
2022-11-18T11:44:21.182Z,94.72
2022-11-18T11:47:47.948Z,94.54
2022-11-18T11:51:03.277Z,94.86
2022-11-18T11:54:15.679Z,94.42
2022-11-18T11:56:57.796Z,94.16
2022-11-18T12:00:04.818Z,94.06
2022-11-18T12:03:00.414Z,93.79
2022-11-18T12:05:40.570Z,93.66
2022-11-18T12:08:31.191Z,93.51
2022-11-18T12:11:11.464Z,93.72
2022-11-18T12:14:04.625Z,92.97
2022-11-18T12:16:37.873Z,93.08
2022-11-18T12:19:18.980Z,92.27
2022-11-18T12:21:46.598Z,91.86
2022-11-18T12:24:20.721Z,91.67
2022-11-18T12:26:51.609Z,92.06
2022-11-18T12:29:19.435Z,91.57
2022-11-18T12:31:51.046Z,91.63
2022-11-18T12:34:32.150Z,91.97
2022-11-18T12:37:25.297Z,91.53
2022-11-18T12:39:55.685Z,91.65
2022-11-18T12:43:04.411Z,91.80
2022-11-18T12:45:40.921Z,91.94
2022-11-18T12:48:27.284Z,92.01
2022-11-18T12:51:15.935Z,91.80
2022-11-18T12:53:52.119Z,91.82
2022-11-18T12:56:19.768Z,92.15
2022-11-18T12:58:54.740Z,91.53
2022-11-18T13:01:31.978Z,91.86
2022-11-18T13:04:22.424Z,91.43
2022-11-18T13:06:54.246Z,91.97
2022-11-18T13:09:32.297Z,91.46
2022-11-18T13:12:14.460Z,91.25
2022-11-18T13:15:03.423Z,91.54
2022-11-18T13:17:54.622Z,91.51
2022-11-18T13:20:35.589Z,91.25
2022-11-18T13:23:33.765Z,91.76
2022-11-18T13:26:12.221Z,91.59
2022-11-18T13:29:23.243Z,91.90
2022-11-18T13:32:20.327Z,91.90
2022-11-18T13:34:55.402Z,91.67
2022-11-18T13:37:34.202Z,91.62
2022-11-18T13:40:02.119Z,91.57
2022-11-18T13:42:32.630Z,91.32
2022-11-18T13:45:02.989Z,91.46
2022-11-18T13:47:45.311Z,91.40
2022-11-18T13:50:34.444Z,91.79
2022-11-18T13:53:09.620Z,91.67
2022-11-18T13:55:47.480Z,91.60
2022-11-18T13:58:17.980Z,91.73
2022-11-18T14:00:58.203Z,91.70
2022-11-18T14:03:46.013Z,91.93
2022-11-18T14:06:29.168Z,92.12
2022-11-18T14:09:24.098Z,92.26
2022-11-18T14:12:05.131Z,92.52
2022-11-18T14:14:41.893Z,92.97
2022-11-18T14:17:25.473Z,93.30
2022-11-18T14:19:59.012Z,93.29
2022-11-18T14:22:30.893Z,93.73
2022-11-18T14:25:24.117Z,93.46
2022-11-18T14:27:54.699Z,94.14
2022-11-18T14:30:38.468Z,94.38
2022-11-18T14:33:20.394Z,94.29
2022-11-18T14:35:56.024Z,94.25
2022-11-18T14:38:44.111Z,94.55
2022-11-18T14:41:42.471Z,94.84
2022-11-18T14:44:13.762Z,94.80
2022-11-18T14:46:46.258Z,94.90
2022-11-18T14:49:18.596Z,94.93
2022-11-18T14:51:46.881Z,94.81
2022-11-18T14:54:23.811Z,95.20
2022-11-18T14:57:00.112Z,95.30
2022-11-18T14:59:28.068Z,95.29
2022-11-18T15:01:57.139Z,95.44
2022-11-18T15:04:25.550Z,95.45
2022-11-18T15:06:53.404Z,95.33
2022-11-18T15:09:21.576Z,95.69
2022-11-18T15:11:49.024Z,95.71
2022-11-18T15:14:16.975Z,96.06
2022-11-18T15:16:44.874Z,95.58
2022-11-18T15:19:16.025Z,95.89
2022-11-18T15:21:45.250Z,95.82
2022-11-18T15:24:12.774Z,95.80
2022-11-18T15:26:46.972Z,95.75
2022-11-18T15:29:24.242Z,96.27
2022-11-18T15:31:52.028Z,95.96
2022-11-18T15:34:21.637Z,96.20
2022-11-18T15:36:49.947Z,96.44
2022-11-18T15:39:18.486Z,96.94
2022-11-18T15:41:45.944Z,97.09
2022-11-18T15:44:13.342Z,96.71
2022-11-18T15:46:40.814Z,97.32
2022-11-18T15:49:14.599Z,96.76
2022-11-18T15:51:42.261Z,97.25
2022-11-18T15:54:09.972Z,97.47
2022-11-18T15:56:38.360Z,97.46
2022-11-18T15:59:12.411Z,97.27
2022-11-18T16:01:46.800Z,97.27
2022-11-18T16:04:17.901Z,97.29
2022-11-18T16:06:47.372Z,97.55
2022-11-18T16:09:16.637Z,97.16
2022-11-18T16:12:02.773Z,97.77
2022-11-18T16:14:30.366Z,98.10
2022-11-18T16:16:57.874Z,97.74
2022-11-18T16:19:27.200Z,98.37
2022-11-18T16:21:56.966Z,98.24
2022-11-18T16:24:28.800Z,98.65
2022-11-18T16:26:56.485Z,98.17
2022-11-18T16:29:24.947Z,98.23
2022-11-18T16:31:54.153Z,98.09
2022-11-18T16:34:25.403Z,98.99
2022-11-18T16:36:57.114Z,98.87
2022-11-18T16:39:26.524Z,98.87
2022-11-18T16:42:02.109Z,98.51
2022-11-18T16:44:34.865Z,99.13
2022-11-18T16:47:05.329Z,98.70
2022-11-18T16:49:35.184Z,98.68
2022-11-18T16:52:02.547Z,98.74
2022-11-18T16:54:32.041Z,98.66
2022-11-18T16:56:59.989Z,99.06
2022-11-18T16:59:31.522Z,99.45
2022-11-18T17:02:01.968Z,99.24
2022-11-18T17:04:30.476Z,98.80
2022-11-18T17:07:00.957Z,99.18
2022-11-18T17:09:28.369Z,99.39
2022-11-18T17:11:56.648Z,99.20
2022-11-18T17:14:25.496Z,99.31
2022-11-18T17:16:53.520Z,99.48
2022-11-18T17:19:23.742Z,99.88
2022-11-18T17:21:52.476Z,99.99
2022-11-18T17:24:23.167Z,100.00
2022-11-18T17:26:52.417Z,99.99
2022-11-18T17:29:20.991Z,100.00
2022-11-18T17:31:49.029Z,100.00
2022-11-18T17:34:17.021Z,99.93
2022-11-18T17:36:44.933Z,100.00
2022-11-18T17:39:13.310Z,100.00
2022-11-18T17:41:59.824Z,100.00
2022-11-18T17:44:28.296Z,100.00
2022-11-18T17:46:56.067Z,100.00
2022-11-18T17:49:24.682Z,100.00
2022-11-18T17:51:52.207Z,100.00
2022-11-18T17:54:21.561Z,100.00
2022-11-18T17:56:53.538Z,100.00
2022-11-18T17:59:23.083Z,100.00
2022-11-18T18:01:57.382Z,100.00
2022-11-18T18:04:26.910Z,100.00
2022-11-18T18:06:55.513Z,100.00
2022-11-18T18:09:31.062Z,100.00
2022-11-18T18:12:00.487Z,100.00
2022-11-18T18:14:28.096Z,100.00
2022-11-18T18:16:55.563Z,100.00
2022-11-18T18:19:24.860Z,100.00
2022-11-18T18:21:53.843Z,100.00
2022-11-18T18:24:21.787Z,100.00
2022-11-18T18:26:49.814Z,100.00
2022-11-18T18:29:17.298Z,100.00
2022-11-18T18:31:44.756Z,100.00
2022-11-18T18:34:12.191Z,100.00
2022-11-18T18:36:39.552Z,100.00
2022-11-18T18:39:07.048Z,100.00
2022-11-18T18:41:34.826Z,100.00
2022-11-18T18:44:02.199Z,100.00
2022-11-18T18:46:31.332Z,100.00
2022-11-18T18:49:07.493Z,100.00
2022-11-18T18:51:46.372Z,100.00
2022-11-18T18:54:17.128Z,100.00
2022-11-18T18:56:45.103Z,100.00
2022-11-18T18:59:12.579Z,100.00
2022-11-18T19:01:40.302Z,100.00
2022-11-18T19:04:11.348Z,100.00
2022-11-18T19:09:27.639Z,100.00
2022-11-18T19:12:13.722Z,100.00
2022-11-18T19:14:41.831Z,100.00
2022-11-18T19:17:12.386Z,100.00
2022-11-18T19:20:01.618Z,100.00
2022-11-18T19:22:32.170Z,100.00
2022-11-18T19:25:11.981Z,100.00
2022-11-18T19:27:40.354Z,100.00
2022-11-18T19:30:12.477Z,100.00
2022-11-18T19:32:42.789Z,100.00
2022-11-18T19:35:14.156Z,100.00
2022-11-18T19:37:44.451Z,100.00
2022-11-18T19:40:13.329Z,100.00
2022-11-18T19:42:42.230Z,100.00
2022-11-18T19:45:13.396Z,100.00
2022-11-18T19:47:40.933Z,100.00
2022-11-18T19:50:11.559Z,100.00
2022-11-18T19:52:41.013Z,100.00
2022-11-18T19:55:11.452Z,100.00
2022-11-18T19:57:38.798Z,100.00
2022-11-18T20:00:07.271Z,100.00
2022-11-18T20:02:38.321Z,100.00
2022-11-18T20:05:24.961Z,100.00
2022-11-18T20:08:03.107Z,100.00
2022-11-18T20:10:30.474Z,100.00
2022-11-18T20:12:57.824Z,100.00
2022-11-18T20:15:25.245Z,100.00
2022-11-18T20:17:55.399Z,100.00
2022-11-18T20:20:22.786Z,100.00
2022-11-18T20:22:53.500Z,100.00
2022-11-18T20:25:21.014Z,100.00
2022-11-18T20:27:48.980Z,100.00
2022-11-18T20:30:17.744Z,100.00
2022-11-18T20:32:47.914Z,100.00
2022-11-18T20:35:15.354Z,100.00
2022-11-18T20:37:42.773Z,100.00
2022-11-18T20:40:10.794Z,100.00
2022-11-18T20:42:57.162Z,100.00
2022-11-18T20:45:24.668Z,100.00
2022-11-18T20:47:52.342Z,100.00
2022-11-18T20:50:19.743Z,100.00
2022-11-18T20:52:47.163Z,100.00
2022-11-18T20:55:20.913Z,100.00
2022-11-18T20:57:48.290Z,100.00
2022-11-18T21:00:16.341Z,100.00
2022-11-18T21:02:43.693Z,100.00
2022-11-18T21:05:13.734Z,100.00
2022-11-18T21:07:41.162Z,100.00
2022-11-18T21:10:09.732Z,100.00
2022-11-18T21:12:37.103Z,100.00
2022-11-18T21:15:05.158Z,100.00
2022-11-18T21:17:32.487Z,100.00
2022-11-18T21:20:19.832Z,100.00
2022-11-18T21:22:47.209Z,100.00
2022-11-18T21:25:14.714Z,100.00
2022-11-18T21:27:42.063Z,100.00
2022-11-18T21:30:10.108Z,100.00
2022-11-18T21:32:37.575Z,100.00
2022-11-18T21:35:05.362Z,100.00
2022-11-18T21:37:33.021Z,100.00
2022-11-18T21:40:00.389Z,100.00
2022-11-18T21:42:27.720Z,100.00
2022-11-18T21:44:55.075Z,100.00
2022-11-18T21:47:23.064Z,100.00
2022-11-18T21:49:50.415Z,100.00
2022-11-18T21:52:18.019Z,100.00
2022-11-18T21:54:45.375Z,100.00
2022-11-18T21:57:12.739Z,100.00
2022-11-18T21:59:40.114Z,100.00
2022-11-18T22:02:14.245Z,100.00
2022-11-18T22:04:53.715Z,100.00
2022-11-18T22:07:25.223Z,100.00
2022-11-18T22:09:52.735Z,100.00
2022-11-18T22:12:20.096Z,100.00
2022-11-18T22:14:47.476Z,100.00
2022-11-18T22:17:14.905Z,100.00
2022-11-18T22:19:44.912Z,100.00
2022-11-18T22:22:12.414Z,100.00
2022-11-18T22:24:45.325Z,100.00
2022-11-18T22:27:15.642Z,100.00
2022-11-18T22:29:43.059Z,100.00
2022-11-18T22:32:10.710Z,100.00
2022-11-18T22:34:41.773Z,100.00
2022-11-18T22:37:09.427Z,100.00
2022-11-18T22:39:37.275Z,100.00
2022-11-18T22:42:23.190Z,100.00
2022-11-18T22:44:50.824Z,100.00
2022-11-18T22:47:18.353Z,100.00
2022-11-18T22:49:45.734Z,100.00
2022-11-18T22:52:13.131Z,100.00
2022-11-18T22:54:40.731Z,100.00
2022-11-18T22:57:08.645Z,100.00
2022-11-18T22:59:36.322Z,100.00
2022-11-18T23:02:07.208Z,100.00
2022-11-18T23:04:35.088Z,100.00
2022-11-18T23:07:02.765Z,100.00
2022-11-18T23:09:30.309Z,100.00
2022-11-18T23:12:16.280Z,100.00
2022-11-18T23:14:43.627Z,100.00
2022-11-18T23:17:10.966Z,100.00
2022-11-18T23:19:43.423Z,100.00
2022-11-18T23:22:11.780Z,100.00
2022-11-18T23:24:39.195Z,100.00
2022-11-18T23:27:06.617Z,100.00
2022-11-18T23:29:33.958Z,100.00
2022-11-18T23:32:01.363Z,100.00
2022-11-18T23:34:39.685Z,100.00
2022-11-18T23:37:07.139Z,100.00
2022-11-18T23:39:34.658Z,100.00
2022-11-18T23:42:01.997Z,100.00
2022-11-18T23:44:49.093Z,100.00
2022-11-18T23:47:17.245Z,100.00
2022-11-18T23:49:44.728Z,100.00
2022-11-18T23:52:12.852Z,100.00
2022-11-18T23:54:40.261Z,100.00
2022-11-18T23:57:07.658Z,100.00
2022-11-18T23:59:35.066Z,100.00
